Minnetonka Mills, Minnesota
Current Conditions -  °F | °C
As of 1:53 AM on Tuesday 21 Oct 2014 (Local Time) from KFCM Reporting Station
Clear Clear  
Wind Chill:   Ceiling: Unl
Heat Index:   Visibility: 10mi
Dew Point:   Wind: 3mph
Humidity: 86%   Direction: 30°NNE
Pressure: 30.11"   Gusts: NA
Location:  44.9144°N, 93.4174°W
Report Text: KFCM 210653Z AUTO 03003KT 10SM CLR 06/04 A3011 RMK AO2 SLP197 T00610039
Loading
Personal Weather Stations






























Interactive Weather Map
Tropical Storm Tracking
New forecast layout! Learn more

10-Day Weather Forecast

Advertisements
Track Severe Weather on mobile